sensor_id;sensor_type;location;lat;lon;timestamp;P1;durP1;ratioP1;P2;durP2;ratioP2
3541;SDS011;1785;47.388;8.538;2022-09-03T00:00:27;7.67;;;6.97;;
3541;SDS011;1785;47.388;8.538;2022-09-03T00:02:58;15.73;;;8.00;;
3541;SDS011;1785;47.388;8.538;2022-09-03T00:05:28;8.15;;;7.35;;
3541;SDS011;1785;47.388;8.538;2022-09-03T00:08:02;8.43;;;7.73;;
3541;SDS011;1785;47.388;8.538;2022-09-03T00:10:36;8.90;;;8.20;;
3541;SDS011;1785;47.388;8.538;2022-09-03T00:13:09;9.80;;;8.90;;
3541;SDS011;1785;47.388;8.538;2022-09-03T00:15:39;8.40;;;7.70;;
3541;SDS011;1785;47.388;8.538;2022-09-03T00:18:06;8.37;;;7.67;;
3541;SDS011;1785;47.388;8.538;2022-09-03T00:20:36;9.90;;;7.80;;
3541;SDS011;1785;47.388;8.538;2022-09-03T00:23:06;9.10;;;8.23;;
3541;SDS011;1785;47.388;8.538;2022-09-03T00:25:37;8.03;;;7.43;;
3541;SDS011;1785;47.388;8.538;2022-09-03T00:28:09;7.50;;;6.90;;
3541;SDS011;1785;47.388;8.538;2022-09-03T00:30:39;7.87;;;7.17;;
3541;SDS011;1785;47.388;8.538;2022-09-03T00:33:08;9.40;;;8.50;;
3541;SDS011;1785;47.388;8.538;2022-09-03T00:35:40;9.00;;;8.20;;
3541;SDS011;1785;47.388;8.538;2022-09-03T00:38:11;7.47;;;6.87;;
3541;SDS011;1785;47.388;8.538;2022-09-03T00:40:44;8.93;;;8.10;;
3541;SDS011;1785;47.388;8.538;2022-09-03T00:43:23;11.40;;;10.17;;
3541;SDS011;1785;47.388;8.538;2022-09-03T00:46:02;11.17;;;9.97;;
3541;SDS011;1785;47.388;8.538;2022-09-03T00:48:38;11.10;;;9.13;;
3541;SDS011;1785;47.388;8.538;2022-09-03T00:51:12;10.77;;;9.80;;
3541;SDS011;1785;47.388;8.538;2022-09-03T00:53:52;9.80;;;8.73;;
3541;SDS011;1785;47.388;8.538;2022-09-03T00:56:26;10.67;;;9.60;;
3541;SDS011;1785;47.388;8.538;2022-09-03T00:59:05;8.67;;;7.83;;
3541;SDS011;1785;47.388;8.538;2022-09-03T01:01:42;8.80;;;8.07;;
3541;SDS011;1785;47.388;8.538;2022-09-03T01:04:25;9.33;;;8.50;;
3541;SDS011;1785;47.388;8.538;2022-09-03T01:07:02;9.47;;;8.57;;
3541;SDS011;1785;47.388;8.538;2022-09-03T01:09:41;8.40;;;7.43;;
3541;SDS011;1785;47.388;8.538;2022-09-03T01:12:17;9.37;;;8.33;;
3541;SDS011;1785;47.388;8.538;2022-09-03T01:14:57;8.27;;;7.57;;
3541;SDS011;1785;47.388;8.538;2022-09-03T01:17:35;8.13;;;7.33;;
3541;SDS011;1785;47.388;8.538;2022-09-03T01:20:13;7.40;;;6.70;;
3541;SDS011;1785;47.388;8.538;2022-09-03T01:23:01;7.30;;;6.60;;
3541;SDS011;1785;47.388;8.538;2022-09-03T01:25:50;8.30;;;7.57;;
3541;SDS011;1785;47.388;8.538;2022-09-03T01:28:28;7.13;;;6.63;;
3541;SDS011;1785;47.388;8.538;2022-09-03T01:31:10;9.50;;;7.47;;
3541;SDS011;1785;47.388;8.538;2022-09-03T01:33:49;6.93;;;6.33;;
3541;SDS011;1785;47.388;8.538;2022-09-03T01:36:23;6.00;;;5.60;;
3541;SDS011;1785;47.388;8.538;2022-09-03T01:38:58;8.50;;;6.20;;
3541;SDS011;1785;47.388;8.538;2022-09-03T01:41:30;6.37;;;5.90;;
3541;SDS011;1785;47.388;8.538;2022-09-03T01:44:30;6.03;;;5.40;;
3541;SDS011;1785;47.388;8.538;2022-09-03T01:47:07;7.33;;;6.70;;
3541;SDS011;1785;47.388;8.538;2022-09-03T01:49:42;6.00;;;5.47;;
3541;SDS011;1785;47.388;8.538;2022-09-03T01:52:23;7.30;;;6.60;;
3541;SDS011;1785;47.388;8.538;2022-09-03T01:55:04;7.10;;;6.40;;
3541;SDS011;1785;47.388;8.538;2022-09-03T01:57:42;7.80;;;7.20;;
3541;SDS011;1785;47.388;8.538;2022-09-03T02:00:15;11.37;;;7.20;;
3541;SDS011;1785;47.388;8.538;2022-09-03T02:02:45;7.80;;;7.00;;
3541;SDS011;1785;47.388;8.538;2022-09-03T02:05:14;6.97;;;6.33;;
3541;SDS011;1785;47.388;8.538;2022-09-03T02:07:43;7.10;;;6.40;;
3541;SDS011;1785;47.388;8.538;2022-09-03T02:10:13;7.00;;;6.40;;
3541;SDS011;1785;47.388;8.538;2022-09-03T02:12:43;7.67;;;6.93;;
3541;SDS011;1785;47.388;8.538;2022-09-03T02:15:14;5.95;;;5.45;;
3541;SDS011;1785;47.388;8.538;2022-09-03T02:17:45;6.90;;;6.00;;
3541;SDS011;1785;47.388;8.538;2022-09-03T02:20:15;9.30;;;5.90;;
3541;SDS011;1785;47.388;8.538;2022-09-03T02:22:45;5.73;;;5.23;;
3541;SDS011;1785;47.388;8.538;2022-09-03T02:25:12;5.07;;;4.67;;
3541;SDS011;1785;47.388;8.538;2022-09-03T02:27:40;6.30;;;5.80;;
3541;SDS011;1785;47.388;8.538;2022-09-03T02:30:07;5.17;;;4.77;;
3541;SDS011;1785;47.388;8.538;2022-09-03T02:32:35;5.47;;;4.60;;
3541;SDS011;1785;47.388;8.538;2022-09-03T02:35:02;5.50;;;5.10;;
3541;SDS011;1785;47.388;8.538;2022-09-03T02:39:58;4.53;;;4.20;;
3541;SDS011;1785;47.388;8.538;2022-09-03T02:42:26;4.90;;;4.50;;
3541;SDS011;1785;47.388;8.538;2022-09-03T02:44:52;5.17;;;4.67;;
3541;SDS011;1785;47.388;8.538;2022-09-03T02:47:23;5.17;;;4.77;;
3541;SDS011;1785;47.388;8.538;2022-09-03T02:49:56;5.30;;;4.80;;
3541;SDS011;1785;47.388;8.538;2022-09-03T02:52:22;5.93;;;5.43;;
3541;SDS011;1785;47.388;8.538;2022-09-03T02:54:49;4.93;;;4.03;;
3541;SDS011;1785;47.388;8.538;2022-09-03T02:57:15;4.80;;;4.43;;
3541;SDS011;1785;47.388;8.538;2022-09-03T03:02:09;4.70;;;4.30;;
3541;SDS011;1785;47.388;8.538;2022-09-03T03:04:37;5.20;;;3.70;;
3541;SDS011;1785;47.388;8.538;2022-09-03T03:07:05;4.63;;;4.33;;
3541;SDS011;1785;47.388;8.538;2022-09-03T03:09:32;4.87;;;4.47;;
3541;SDS011;1785;47.388;8.538;2022-09-03T03:11:58;4.40;;;4.10;;
3541;SDS011;1785;47.388;8.538;2022-09-03T03:14:25;5.70;;;4.27;;
3541;SDS011;1785;47.388;8.538;2022-09-03T03:16:51;6.70;;;4.90;;
3541;SDS011;1785;47.388;8.538;2022-09-03T03:19:17;4.93;;;4.43;;
3541;SDS011;1785;47.388;8.538;2022-09-03T03:21:44;4.85;;;4.53;;
3541;SDS011;1785;47.388;8.538;2022-09-03T03:24:12;5.00;;;4.50;;
3541;SDS011;1785;47.388;8.538;2022-09-03T03:26:39;4.93;;;4.53;;
3541;SDS011;1785;47.388;8.538;2022-09-03T03:29:06;4.93;;;4.50;;
3541;SDS011;1785;47.388;8.538;2022-09-03T03:31:32;5.83;;;4.83;;
3541;SDS011;1785;47.388;8.538;2022-09-03T03:33:59;6.77;;;5.30;;
3541;SDS011;1785;47.388;8.538;2022-09-03T03:36:28;7.03;;;4.30;;
3541;SDS011;1785;47.388;8.538;2022-09-03T03:38:56;5.77;;;5.07;;
3541;SDS011;1785;47.388;8.538;2022-09-03T03:41:26;6.70;;;4.43;;
3541;SDS011;1785;47.388;8.538;2022-09-03T03:43:56;5.57;;;5.07;;
3541;SDS011;1785;47.388;8.538;2022-09-03T03:46:23;5.37;;;4.87;;
3541;SDS011;1785;47.388;8.538;2022-09-03T03:48:53;5.23;;;4.37;;
3541;SDS011;1785;47.388;8.538;2022-09-03T03:51:20;4.47;;;4.07;;
3541;SDS011;1785;47.388;8.538;2022-09-03T03:53:46;5.53;;;5.07;;
3541;SDS011;1785;47.388;8.538;2022-09-03T03:56:13;4.87;;;4.50;;
3541;SDS011;1785;47.388;8.538;2022-09-03T03:58:41;5.63;;;5.13;;
3541;SDS011;1785;47.388;8.538;2022-09-03T04:01:09;5.90;;;5.40;;
3541;SDS011;1785;47.388;8.538;2022-09-03T04:03:36;5.27;;;4.87;;
3541;SDS011;1785;47.388;8.538;2022-09-03T04:06:04;4.90;;;4.60;;
3541;SDS011;1785;47.388;8.538;2022-09-03T04:08:32;4.77;;;4.47;;
3541;SDS011;1785;47.388;8.538;2022-09-03T04:11:01;4.90;;;4.37;;
3541;SDS011;1785;47.388;8.538;2022-09-03T04:13:29;5.60;;;4.57;;
3541;SDS011;1785;47.388;8.538;2022-09-03T04:16:00;5.90;;;4.63;;
3541;SDS011;1785;47.388;8.538;2022-09-03T04:18:27;4.07;;;3.57;;
3541;SDS011;1785;47.388;8.538;2022-09-03T04:20:57;3.80;;;3.53;;
3541;SDS011;1785;47.388;8.538;2022-09-03T04:23:25;4.40;;;4.10;;
3541;SDS011;1785;47.388;8.538;2022-09-03T04:25:52;4.80;;;4.40;;
3541;SDS011;1785;47.388;8.538;2022-09-03T04:28:19;4.60;;;4.30;;
3541;SDS011;1785;47.388;8.538;2022-09-03T04:30:47;4.82;;;4.25;;
3541;SDS011;1785;47.388;8.538;2022-09-03T04:33:14;5.07;;;4.67;;
3541;SDS011;1785;47.388;8.538;2022-09-03T04:35:40;4.97;;;4.57;;
3541;SDS011;1785;47.388;8.538;2022-09-03T04:38:07;5.50;;;5.10;;
3541;SDS011;1785;47.388;8.538;2022-09-03T04:40:34;4.60;;;4.30;;
3541;SDS011;1785;47.388;8.538;2022-09-03T04:43:00;3.50;;;3.30;;
3541;SDS011;1785;47.388;8.538;2022-09-03T04:45:27;3.50;;;2.90;;
3541;SDS011;1785;47.388;8.538;2022-09-03T04:47:57;4.67;;;4.27;;
3541;SDS011;1785;47.388;8.538;2022-09-03T04:50:25;2.73;;;2.50;;
3541;SDS011;1785;47.388;8.538;2022-09-03T04:52:52;3.30;;;2.90;;
3541;SDS011;1785;47.388;8.538;2022-09-03T04:55:20;2.10;;;2.00;;
3541;SDS011;1785;47.388;8.538;2022-09-03T04:57:47;2.60;;;2.40;;
3541;SDS011;1785;47.388;8.538;2022-09-03T05:00:13;2.20;;;2.00;;
3541;SDS011;1785;47.388;8.538;2022-09-03T05:02:42;2.60;;;2.40;;
3541;SDS011;1785;47.388;8.538;2022-09-03T05:05:10;6.20;;;2.30;;
3541;SDS011;1785;47.388;8.538;2022-09-03T05:07:38;2.20;;;2.10;;
3541;SDS011;1785;47.388;8.538;2022-09-03T05:10:05;4.40;;;2.70;;
3541;SDS011;1785;47.388;8.538;2022-09-03T05:12:33;2.63;;;2.43;;
3541;SDS011;1785;47.388;8.538;2022-09-03T05:15:00;2.30;;;2.20;;
3541;SDS011;1785;47.388;8.538;2022-09-03T05:17:28;3.00;;;2.77;;
3541;SDS011;1785;47.388;8.538;2022-09-03T05:19:55;2.70;;;2.20;;
3541;SDS011;1785;47.388;8.538;2022-09-03T05:22:22;2.90;;;1.97;;
3541;SDS011;1785;47.388;8.538;2022-09-03T05:24:49;3.67;;;2.70;;
3541;SDS011;1785;47.388;8.538;2022-09-03T05:27:16;2.33;;;2.20;;
3541;SDS011;1785;47.388;8.538;2022-09-03T05:29:43;2.20;;;2.00;;
3541;SDS011;1785;47.388;8.538;2022-09-03T05:32:10;2.53;;;2.43;;
3541;SDS011;1785;47.388;8.538;2022-09-03T05:34:37;2.50;;;2.30;;
3541;SDS011;1785;47.388;8.538;2022-09-03T05:37:04;2.63;;;2.43;;
3541;SDS011;1785;47.388;8.538;2022-09-03T05:39:30;1.75;;;1.60;;
3541;SDS011;1785;47.388;8.538;2022-09-03T05:41:58;2.20;;;2.07;;
3541;SDS011;1785;47.388;8.538;2022-09-03T05:44:24;3.37;;;2.17;;
3541;SDS011;1785;47.388;8.538;2022-09-03T05:46:50;3.33;;;2.20;;
3541;SDS011;1785;47.388;8.538;2022-09-03T05:49:17;2.30;;;2.20;;
3541;SDS011;1785;47.388;8.538;2022-09-03T05:51:44;2.33;;;2.23;;
3541;SDS011;1785;47.388;8.538;2022-09-03T05:54:11;2.70;;;2.50;;
3541;SDS011;1785;47.388;8.538;2022-09-03T05:56:38;3.30;;;2.10;;
3541;SDS011;1785;47.388;8.538;2022-09-03T05:59:08;2.20;;;2.00;;
3541;SDS011;1785;47.388;8.538;2022-09-03T06:01:36;2.40;;;2.20;;
3541;SDS011;1785;47.388;8.538;2022-09-03T06:04:04;2.10;;;1.90;;
3541;SDS011;1785;47.388;8.538;2022-09-03T06:06:33;3.20;;;2.43;;
3541;SDS011;1785;47.388;8.538;2022-09-03T06:09:02;3.00;;;2.60;;
3541;SDS011;1785;47.388;8.538;2022-09-03T06:11:31;7.43;;;2.60;;
3541;SDS011;1785;47.388;8.538;2022-09-03T06:13:59;3.33;;;2.83;;
3541;SDS011;1785;47.388;8.538;2022-09-03T06:16:30;2.27;;;2.10;;
3541;SDS011;1785;47.388;8.538;2022-09-03T06:18:58;3.10;;;2.80;;
3541;SDS011;1785;47.388;8.538;2022-09-03T06:21:24;2.60;;;2.40;;
3541;SDS011;1785;47.388;8.538;2022-09-03T06:23:51;2.23;;;2.03;;
3541;SDS011;1785;47.388;8.538;2022-09-03T06:26:21;2.67;;;2.47;;
3541;SDS011;1785;47.388;8.538;2022-09-03T06:28:48;3.67;;;2.30;;
3541;SDS011;1785;47.388;8.538;2022-09-03T06:31:15;2.70;;;2.40;;
3541;SDS011;1785;47.388;8.538;2022-09-03T06:33:44;5.20;;;2.97;;
3541;SDS011;1785;47.388;8.538;2022-09-03T06:36:12;4.30;;;2.73;;
3541;SDS011;1785;47.388;8.538;2022-09-03T06:38:40;3.13;;;2.60;;
3541;SDS011;1785;47.388;8.538;2022-09-03T06:41:08;1.97;;;1.83;;
3541;SDS011;1785;47.388;8.538;2022-09-03T06:43:36;3.07;;;2.77;;
3541;SDS011;1785;47.388;8.538;2022-09-03T06:46:05;3.28;;;2.72;;
3541;SDS011;1785;47.388;8.538;2022-09-03T06:48:33;3.00;;;2.80;;
3541;SDS011;1785;47.388;8.538;2022-09-03T06:51:01;2.60;;;2.40;;
3541;SDS011;1785;47.388;8.538;2022-09-03T06:53:31;3.40;;;3.10;;
3541;SDS011;1785;47.388;8.538;2022-09-03T06:55:59;3.90;;;2.37;;
3541;SDS011;1785;47.388;8.538;2022-09-03T06:58:27;3.20;;;3.00;;
3541;SDS011;1785;47.388;8.538;2022-09-03T07:01:00;3.23;;;2.97;;
3541;SDS011;1785;47.388;8.538;2022-09-03T07:03:27;3.53;;;2.87;;
3541;SDS011;1785;47.388;8.538;2022-09-03T07:05:58;4.10;;;2.83;;
3541;SDS011;1785;47.388;8.538;2022-09-03T07:08:26;4.20;;;3.50;;
3541;SDS011;1785;47.388;8.538;2022-09-03T07:10:57;3.53;;;3.00;;
3541;SDS011;1785;47.388;8.538;2022-09-03T07:13:24;3.13;;;2.83;;
3541;SDS011;1785;47.388;8.538;2022-09-03T07:15:56;3.60;;;3.10;;
3541;SDS011;1785;47.388;8.538;2022-09-03T07:18:24;3.33;;;3.03;;
3541;SDS011;1785;47.388;8.538;2022-09-03T07:20:56;2.87;;;2.67;;
3541;SDS011;1785;47.388;8.538;2022-09-03T07:23:24;3.10;;;2.80;;
3541;SDS011;1785;47.388;8.538;2022-09-03T07:25:53;3.60;;;3.30;;
3541;SDS011;1785;47.388;8.538;2022-09-03T07:28:20;3.80;;;2.77;;
3541;SDS011;1785;47.388;8.538;2022-09-03T07:30:49;3.10;;;2.80;;
3541;SDS011;1785;47.388;8.538;2022-09-03T07:33:15;3.60;;;3.40;;
3541;SDS011;1785;47.388;8.538;2022-09-03T07:35:42;3.33;;;3.10;;
3541;SDS011;1785;47.388;8.538;2022-09-03T07:38:09;4.37;;;4.03;;
3541;SDS011;1785;47.388;8.538;2022-09-03T07:40:41;5.40;;;4.07;;
3541;SDS011;1785;47.388;8.538;2022-09-03T07:43:09;4.67;;;3.17;;
3541;SDS011;1785;47.388;8.538;2022-09-03T07:45:36;3.20;;;3.00;;
3541;SDS011;1785;47.388;8.538;2022-09-03T07:48:03;2.80;;;2.60;;
3541;SDS011;1785;47.388;8.538;2022-09-03T07:50:30;4.73;;;3.47;;
3541;SDS011;1785;47.388;8.538;2022-09-03T07:53:01;3.97;;;3.67;;
3541;SDS011;1785;47.388;8.538;2022-09-03T07:55:28;3.40;;;3.10;;
3541;SDS011;1785;47.388;8.538;2022-09-03T07:57:55;8.57;;;3.67;;
3541;SDS011;1785;47.388;8.538;2022-09-03T08:00:24;5.83;;;4.23;;
3541;SDS011;1785;47.388;8.538;2022-09-03T08:02:51;4.30;;;3.90;;
3541;SDS011;1785;47.388;8.538;2022-09-03T08:05:18;3.53;;;3.33;;
3541;SDS011;1785;47.388;8.538;2022-09-03T08:07:46;6.33;;;3.90;;
3541;SDS011;1785;47.388;8.538;2022-09-03T08:10:13;3.60;;;3.30;;
3541;SDS011;1785;47.388;8.538;2022-09-03T08:12:40;4.40;;;3.67;;
3541;SDS011;1785;47.388;8.538;2022-09-03T08:15:08;4.43;;;4.00;;
3541;SDS011;1785;47.388;8.538;2022-09-03T08:17:36;3.97;;;3.67;;
3541;SDS011;1785;47.388;8.538;2022-09-03T08:20:02;3.93;;;3.60;;
3541;SDS011;1785;47.388;8.538;2022-09-03T08:22:29;3.83;;;3.53;;
3541;SDS011;1785;47.388;8.538;2022-09-03T08:24:55;5.17;;;4.17;;
3541;SDS011;1785;47.388;8.538;2022-09-03T08:27:22;5.97;;;3.90;;
3541;SDS011;1785;47.388;8.538;2022-09-03T08:29:49;3.90;;;3.60;;
3541;SDS011;1785;47.388;8.538;2022-09-03T08:32:16;5.43;;;5.03;;
3541;SDS011;1785;47.388;8.538;2022-09-03T08:34:43;3.63;;;3.33;;
3541;SDS011;1785;47.388;8.538;2022-09-03T08:37:11;5.53;;;4.90;;
3541;SDS011;1785;47.388;8.538;2022-09-03T08:39:37;5.13;;;4.63;;
3541;SDS011;1785;47.388;8.538;2022-09-03T08:42:20;4.00;;;3.70;;
3541;SDS011;1785;47.388;8.538;2022-09-03T08:45:05;3.70;;;3.40;;
3541;SDS011;1785;47.388;8.538;2022-09-03T08:47:35;4.43;;;4.13;;
3541;SDS011;1785;47.388;8.538;2022-09-03T08:50:07;6.63;;;4.27;;
3541;SDS011;1785;47.388;8.538;2022-09-03T08:52:44;4.43;;;3.53;;
3541;SDS011;1785;47.388;8.538;2022-09-03T08:55:17;6.07;;;4.00;;
3541;SDS011;1785;47.388;8.538;2022-09-03T08:57:49;5.17;;;3.80;;
3541;SDS011;1785;47.388;8.538;2022-09-03T09:00:18;3.93;;;3.63;;
3541;SDS011;1785;47.388;8.538;2022-09-03T09:02:52;3.90;;;3.50;;
3541;SDS011;1785;47.388;8.538;2022-09-03T09:05:33;4.87;;;3.47;;
3541;SDS011;1785;47.388;8.538;2022-09-03T09:08:09;4.40;;;3.10;;
3541;SDS011;1785;47.388;8.538;2022-09-03T09:10:43;7.40;;;3.47;;
3541;SDS011;1785;47.388;8.538;2022-09-03T09:13:14;3.73;;;3.23;;
3541;SDS011;1785;47.388;8.538;2022-09-03T09:15:52;3.63;;;3.33;;
3541;SDS011;1785;47.388;8.538;2022-09-03T09:18:31;4.33;;;3.90;;
3541;SDS011;1785;47.388;8.538;2022-09-03T09:21:12;3.37;;;3.07;;
3541;SDS011;1785;47.388;8.538;2022-09-03T09:23:43;3.83;;;3.53;;
3541;SDS011;1785;47.388;8.538;2022-09-03T09:26:14;4.93;;;4.43;;
3541;SDS011;1785;47.388;8.538;2022-09-03T09:28:42;3.80;;;3.50;;
3541;SDS011;1785;47.388;8.538;2022-09-03T09:31:11;4.40;;;4.00;;
3541;SDS011;1785;47.388;8.538;2022-09-03T09:33:40;3.57;;;3.27;;
3541;SDS011;1785;47.388;8.538;2022-09-03T09:36:08;2.47;;;2.27;;
3541;SDS011;1785;47.388;8.538;2022-09-03T09:38:37;3.37;;;2.47;;
3541;SDS011;1785;47.388;8.538;2022-09-03T09:41:09;3.10;;;2.90;;
3541;SDS011;1785;47.388;8.538;2022-09-03T09:43:38;3.43;;;3.20;;
3541;SDS011;1785;47.388;8.538;2022-09-03T09:46:06;3.13;;;2.93;;
3541;SDS011;1785;47.388;8.538;2022-09-03T09:48:37;3.60;;;3.03;;
3541;SDS011;1785;47.388;8.538;2022-09-03T09:51:16;2.80;;;2.27;;
3541;SDS011;1785;47.388;8.538;2022-09-03T09:53:58;3.23;;;3.03;;
3541;SDS011;1785;47.388;8.538;2022-09-03T09:56:26;2.90;;;2.70;;
3541;SDS011;1785;47.388;8.538;2022-09-03T09:59:01;2.63;;;2.37;;
3541;SDS011;1785;47.388;8.538;2022-09-03T10:01:28;3.60;;;2.67;;
3541;SDS011;1785;47.388;8.538;2022-09-03T10:03:56;2.50;;;2.30;;
3541;SDS011;1785;47.388;8.538;2022-09-03T10:06:26;3.00;;;2.80;;
3541;SDS011;1785;47.388;8.538;2022-09-03T10:09:14;2.57;;;2.40;;
3541;SDS011;1785;47.388;8.538;2022-09-03T10:11:47;3.43;;;3.13;;
3541;SDS011;1785;47.388;8.538;2022-09-03T10:14:19;5.27;;;2.73;;
3541;SDS011;1785;47.388;8.538;2022-09-03T10:16:49;2.87;;;2.67;;
3541;SDS011;1785;47.388;8.538;2022-09-03T10:19:27;2.83;;;2.63;;
3541;SDS011;1785;47.388;8.538;2022-09-03T10:22:01;2.93;;;2.73;;
3541;SDS011;1785;47.388;8.538;2022-09-03T10:24:37;3.20;;;2.73;;
3541;SDS011;1785;47.388;8.538;2022-09-03T10:27:13;3.00;;;2.80;;
3541;SDS011;1785;47.388;8.538;2022-09-03T10:29:42;2.90;;;2.57;;
3541;SDS011;1785;47.388;8.538;2022-09-03T10:32:13;2.43;;;2.33;;
3541;SDS011;1785;47.388;8.538;2022-09-03T10:35:02;2.43;;;2.23;;
3541;SDS011;1785;47.388;8.538;2022-09-03T10:37:37;2.40;;;2.30;;
3541;SDS011;1785;47.388;8.538;2022-09-03T10:40:21;2.83;;;2.63;;
3541;SDS011;1785;47.388;8.538;2022-09-03T10:42:59;4.80;;;2.23;;
3541;SDS011;1785;47.388;8.538;2022-09-03T10:45:46;2.50;;;1.87;;
3541;SDS011;1785;47.388;8.538;2022-09-03T10:48:34;2.37;;;2.17;;
3541;SDS011;1785;47.388;8.538;2022-09-03T10:51:11;2.27;;;2.17;;
3541;SDS011;1785;47.388;8.538;2022-09-03T10:53:53;2.83;;;2.20;;
3541;SDS011;1785;47.388;8.538;2022-09-03T10:56:31;2.70;;;2.50;;
3541;SDS011;1785;47.388;8.538;2022-09-03T10:59:11;2.63;;;2.43;;
3541;SDS011;1785;47.388;8.538;2022-09-03T11:01:56;2.63;;;2.20;;
3541;SDS011;1785;47.388;8.538;2022-09-03T11:04:33;2.60;;;2.40;;
3541;SDS011;1785;47.388;8.538;2022-09-03T11:07:11;2.97;;;2.10;;
3541;SDS011;1785;47.388;8.538;2022-09-03T11:09:40;2.43;;;2.27;;
3541;SDS011;1785;47.388;8.538;2022-09-03T11:12:15;2.93;;;2.47;;
3541;SDS011;1785;47.388;8.538;2022-09-03T11:14:50;2.80;;;2.33;;
3541;SDS011;1785;47.388;8.538;2022-09-03T11:17:21;2.80;;;2.60;;
3541;SDS011;1785;47.388;8.538;2022-09-03T11:19:52;3.07;;;2.23;;
3541;SDS011;1785;47.388;8.538;2022-09-03T11:22:24;2.70;;;2.50;;
3541;SDS011;1785;47.388;8.538;2022-09-03T11:24:54;1.90;;;1.80;;
3541;SDS011;1785;47.388;8.538;2022-09-03T11:27:41;2.73;;;2.40;;
3541;SDS011;1785;47.388;8.538;2022-09-03T11:30:21;2.90;;;2.57;;
3541;SDS011;1785;47.388;8.538;2022-09-03T11:32:50;2.17;;;2.07;;
3541;SDS011;1785;47.388;8.538;2022-09-03T11:35:24;2.23;;;2.03;;
3541;SDS011;1785;47.388;8.538;2022-09-03T11:37:54;5.03;;;2.40;;
3541;SDS011;1785;47.388;8.538;2022-09-03T11:40:27;4.13;;;2.67;;
3541;SDS011;1785;47.388;8.538;2022-09-03T11:43:06;2.50;;;2.27;;
3541;SDS011;1785;47.388;8.538;2022-09-03T11:45:39;2.83;;;2.50;;
3541;SDS011;1785;47.388;8.538;2022-09-03T11:48:19;2.10;;;2.00;;
3541;SDS011;1785;47.388;8.538;2022-09-03T11:51:00;2.57;;;2.40;;
3541;SDS011;1785;47.388;8.538;2022-09-03T11:53:32;4.30;;;2.50;;
3541;SDS011;1785;47.388;8.538;2022-09-03T11:56:00;2.93;;;2.63;;
3541;SDS011;1785;47.388;8.538;2022-09-03T11:58:42;5.43;;;2.23;;
3541;SDS011;1785;47.388;8.538;2022-09-03T12:01:11;2.83;;;2.63;;
3541;SDS011;1785;47.388;8.538;2022-09-03T12:03:41;2.20;;;2.10;;
3541;SDS011;1785;47.388;8.538;2022-09-03T12:06:16;2.87;;;1.97;;
3541;SDS011;1785;47.388;8.538;2022-09-03T12:09:11;3.47;;;1.93;;
3541;SDS011;1785;47.388;8.538;2022-09-03T12:11:59;3.30;;;2.00;;
3541;SDS011;1785;47.388;8.538;2022-09-03T12:14:39;2.30;;;1.67;;
3541;SDS011;1785;47.388;8.538;2022-09-03T12:17:22;2.50;;;1.90;;
3541;SDS011;1785;47.388;8.538;2022-09-03T12:19:56;2.50;;;2.03;;
3541;SDS011;1785;47.388;8.538;2022-09-03T12:22:25;1.90;;;1.80;;
3541;SDS011;1785;47.388;8.538;2022-09-03T12:24:54;2.17;;;2.07;;
3541;SDS011;1785;47.388;8.538;2022-09-03T12:27:21;2.03;;;1.83;;
3541;SDS011;1785;47.388;8.538;2022-09-03T12:29:51;1.80;;;1.70;;
3541;SDS011;1785;47.388;8.538;2022-09-03T12:32:24;1.67;;;1.57;;
3541;SDS011;1785;47.388;8.538;2022-09-03T12:34:54;2.13;;;1.90;;
3541;SDS011;1785;47.388;8.538;2022-09-03T12:37:21;2.10;;;1.90;;
3541;SDS011;1785;47.388;8.538;2022-09-03T12:39:50;2.13;;;1.53;;
3541;SDS011;1785;47.388;8.538;2022-09-03T12:42:19;2.20;;;1.70;;
3541;SDS011;1785;47.388;8.538;2022-09-03T12:44:49;1.33;;;1.17;;
3541;SDS011;1785;47.388;8.538;2022-09-03T12:47:17;3.20;;;1.70;;
3541;SDS011;1785;47.388;8.538;2022-09-03T12:49:46;2.17;;;2.07;;
3541;SDS011;1785;47.388;8.538;2022-09-03T12:52:16;1.60;;;1.50;;
3541;SDS011;1785;47.388;8.538;2022-09-03T12:54:47;1.90;;;1.80;;
3541;SDS011;1785;47.388;8.538;2022-09-03T12:57:19;1.70;;;1.60;;
3541;SDS011;1785;47.388;8.538;2022-09-03T12:59:49;1.87;;;1.77;;
3541;SDS011;1785;47.388;8.538;2022-09-03T13:02:23;1.53;;;1.43;;
3541;SDS011;1785;47.388;8.538;2022-09-03T13:04:54;1.40;;;1.30;;
3541;SDS011;1785;47.388;8.538;2022-09-03T13:07:23;1.75;;;1.65;;
3541;SDS011;1785;47.388;8.538;2022-09-03T13:09:54;4.20;;;2.30;;
3541;SDS011;1785;47.388;8.538;2022-09-03T13:12:29;1.97;;;1.87;;
3541;SDS011;1785;47.388;8.538;2022-09-03T13:15:04;1.77;;;1.33;;
3541;SDS011;1785;47.388;8.538;2022-09-03T13:17:46;3.50;;;2.00;;
3541;SDS011;1785;47.388;8.538;2022-09-03T13:20:33;1.67;;;1.57;;
3541;SDS011;1785;47.388;8.538;2022-09-03T13:23:10;1.33;;;1.23;;
3541;SDS011;1785;47.388;8.538;2022-09-03T13:25:56;1.93;;;1.40;;
3541;SDS011;1785;47.388;8.538;2022-09-03T13:28:33;2.08;;;1.50;;
3541;SDS011;1785;47.388;8.538;2022-09-03T13:31:15;2.10;;;1.90;;
3541;SDS011;1785;47.388;8.538;2022-09-03T13:33:52;1.67;;;1.57;;
3541;SDS011;1785;47.388;8.538;2022-09-03T13:36:24;2.33;;;1.83;;
3541;SDS011;1785;47.388;8.538;2022-09-03T13:38:56;4.47;;;1.80;;
3541;SDS011;1785;47.388;8.538;2022-09-03T13:41:32;1.43;;;1.33;;
3541;SDS011;1785;47.388;8.538;2022-09-03T13:44:05;1.87;;;1.67;;
3541;SDS011;1785;47.388;8.538;2022-09-03T13:46:40;1.60;;;1.50;;
3541;SDS011;1785;47.388;8.538;2022-09-03T13:49:15;2.00;;;1.90;;
3541;SDS011;1785;47.388;8.538;2022-09-03T13:52:07;2.40;;;1.60;;
3541;SDS011;1785;47.388;8.538;2022-09-03T13:54:45;3.10;;;1.50;;
3541;SDS011;1785;47.388;8.538;2022-09-03T13:57:20;2.80;;;1.73;;
3541;SDS011;1785;47.388;8.538;2022-09-03T13:59:55;4.73;;;1.70;;
3541;SDS011;1785;47.388;8.538;2022-09-03T14:02:30;2.13;;;2.00;;
3541;SDS011;1785;47.388;8.538;2022-09-03T14:05:10;2.00;;;1.80;;
3541;SDS011;1785;47.388;8.538;2022-09-03T14:07:52;3.73;;;2.03;;
3541;SDS011;1785;47.388;8.538;2022-09-03T14:10:27;5.87;;;2.20;;
3541;SDS011;1785;47.388;8.538;2022-09-03T14:13:05;2.22;;;2.00;;
3541;SDS011;1785;47.388;8.538;2022-09-03T14:15:42;2.20;;;2.00;;
3541;SDS011;1785;47.388;8.538;2022-09-03T14:18:15;1.90;;;1.70;;
3541;SDS011;1785;47.388;8.538;2022-09-03T14:20:58;1.80;;;1.70;;
3541;SDS011;1785;47.388;8.538;2022-09-03T14:23:31;3.03;;;1.40;;
3541;SDS011;1785;47.388;8.538;2022-09-03T14:26:05;2.30;;;2.10;;
3541;SDS011;1785;47.388;8.538;2022-09-03T14:28:47;2.70;;;1.80;;
3541;SDS011;1785;47.388;8.538;2022-09-03T14:31:24;2.43;;;2.27;;
3541;SDS011;1785;47.388;8.538;2022-09-03T14:34:04;4.60;;;1.97;;
3541;SDS011;1785;47.388;8.538;2022-09-03T14:36:38;2.28;;;1.90;;
3541;SDS011;1785;47.388;8.538;2022-09-03T14:39:19;2.20;;;1.93;;
3541;SDS011;1785;47.388;8.538;2022-09-03T14:47:59;4.90;;;2.20;;
3541;SDS011;1785;47.388;8.538;2022-09-03T14:50:43;2.13;;;1.97;;
3541;SDS011;1785;47.388;8.538;2022-09-03T14:53:34;1.97;;;1.87;;
3541;SDS011;1785;47.388;8.538;2022-09-03T14:56:38;2.20;;;2.00;;
3541;SDS011;1785;47.388;8.538;2022-09-03T14:59:21;2.57;;;1.90;;
3541;SDS011;1785;47.388;8.538;2022-09-03T15:02:11;2.60;;;2.13;;
3541;SDS011;1785;47.388;8.538;2022-09-03T15:05:07;2.27;;;2.10;;
3541;SDS011;1785;47.388;8.538;2022-09-03T15:07:40;2.17;;;2.00;;
3541;SDS011;1785;47.388;8.538;2022-09-03T15:10:13;2.30;;;2.10;;
3541;SDS011;1785;47.388;8.538;2022-09-03T15:12:47;2.20;;;2.00;;
3541;SDS011;1785;47.388;8.538;2022-09-03T15:15:18;5.30;;;1.97;;
3541;SDS011;1785;47.388;8.538;2022-09-03T15:17:55;2.10;;;1.90;;
3541;SDS011;1785;47.388;8.538;2022-09-03T15:20:32;1.90;;;1.80;;
3541;SDS011;1785;47.388;8.538;2022-09-03T15:23:19;2.00;;;1.90;;
3541;SDS011;1785;47.388;8.538;2022-09-03T15:28:49;1.67;;;1.53;;
3541;SDS011;1785;47.388;8.538;2022-09-03T15:31:28;5.83;;;1.93;;
3541;SDS011;1785;47.388;8.538;2022-09-03T15:34:07;1.90;;;1.70;;
3541;SDS011;1785;47.388;8.538;2022-09-03T15:36:45;1.70;;;1.60;;
3541;SDS011;1785;47.388;8.538;2022-09-03T15:39:21;2.10;;;1.90;;
3541;SDS011;1785;47.388;8.538;2022-09-03T15:41:51;23.00;;;16.47;;
3541;SDS011;1785;47.388;8.538;2022-09-03T15:44:21;76.30;;;43.45;;
3541;SDS011;1785;47.388;8.538;2022-09-03T15:46:51;8.40;;;5.50;;
3541;SDS011;1785;47.388;8.538;2022-09-03T15:49:26;4.17;;;2.70;;
3541;SDS011;1785;47.388;8.538;2022-09-03T15:52:14;7.07;;;4.77;;
3541;SDS011;1785;47.388;8.538;2022-09-03T15:55:00;11.00;;;3.90;;
3541;SDS011;1785;47.388;8.538;2022-09-03T15:57:34;7.73;;;6.77;;
3541;SDS011;1785;47.388;8.538;2022-09-03T16:00:06;9.33;;;8.10;;